sensor_id;sensor_type;location;lat;lon;timestamp;pressure;altitude;pressure_sealevel;temperature;humidity
62333;BME280;48624;49.812;8.562;2023-03-13T00:01:29;99959.03;;;9.05;84.13
62333;BME280;48624;49.812;8.562;2023-03-13T00:03:55;99957.53;;;9.13;83.80
62333;BME280;48624;49.812;8.562;2023-03-13T00:06:23;99947.19;;;9.23;83.05
62333;BME280;48624;49.812;8.562;2023-03-13T00:08:49;99945.50;;;9.22;83.43
62333;BME280;48624;49.812;8.562;2023-03-13T00:11:15;99942.72;;;9.24;83.18
62333;BME280;48624;49.812;8.562;2023-03-13T00:13:41;99938.41;;;9.23;83.11
62333;BME280;48624;49.812;8.562;2023-03-13T00:16:10;99928.25;;;9.29;82.77
62333;BME280;48624;49.812;8.562;2023-03-13T00:18:36;99934.47;;;9.28;82.58
62333;BME280;48624;49.812;8.562;2023-03-13T00:21:07;99922.19;;;9.40;82.35
62333;BME280;48624;49.812;8.562;2023-03-13T00:23:34;99925.81;;;9.26;82.59
62333;BME280;48624;49.812;8.562;2023-03-13T00:26:02;99923.91;;;9.28;82.56
62333;BME280;48624;49.812;8.562;2023-03-13T00:28:30;99922.00;;;9.30;82.37
62333;BME280;48624;49.812;8.562;2023-03-13T00:31:08;99919.53;;;9.40;81.97
62333;BME280;48624;49.812;8.562;2023-03-13T00:33:35;99911.31;;;9.32;82.54
62333;BME280;48624;49.812;8.562;2023-03-13T00:36:09;99897.91;;;9.35;82.76
62333;BME280;48624;49.812;8.562;2023-03-13T00:38:35;99896.06;;;9.36;82.28
62333;BME280;48624;49.812;8.562;2023-03-13T00:41:01;99888.22;;;9.47;82.12
62333;BME280;48624;49.812;8.562;2023-03-13T00:43:27;99879.88;;;9.40;82.15
62333;BME280;48624;49.812;8.562;2023-03-13T00:45:53;99886.53;;;9.46;82.05
62333;BME280;48624;49.812;8.562;2023-03-13T00:48:18;99876.31;;;9.28;82.47
62333;BME280;48624;49.812;8.562;2023-03-13T00:50:43;99872.91;;;9.39;82.42
62333;BME280;48624;49.812;8.562;2023-03-13T00:53:10;99872.81;;;9.41;82.15
62333;BME280;48624;49.812;8.562;2023-03-13T00:55:36;99870.47;;;9.49;82.02
62333;BME280;48624;49.812;8.562;2023-03-13T00:58:01;99870.78;;;9.44;82.32
62333;BME280;48624;49.812;8.562;2023-03-13T01:00:26;99859.34;;;9.44;82.58
62333;BME280;48624;49.812;8.562;2023-03-13T01:02:52;99851.13;;;9.36;82.57
62333;BME280;48624;49.812;8.562;2023-03-13T01:05:17;99861.03;;;9.45;82.51
62333;BME280;48624;49.812;8.562;2023-03-13T01:07:42;99852.81;;;9.37;82.53
62333;BME280;48624;49.812;8.562;2023-03-13T01:10:08;99846.09;;;9.33;82.72
62333;BME280;48624;49.812;8.562;2023-03-13T01:12:34;99839.94;;;9.32;83.02
62333;BME280;48624;49.812;8.562;2023-03-13T01:14:59;99822.00;;;9.49;82.25
62333;BME280;48624;49.812;8.562;2023-03-13T01:17:24;99824.59;;;9.37;82.88
62333;BME280;48624;49.812;8.562;2023-03-13T01:19:49;99816.88;;;9.34;83.14
62333;BME280;48624;49.812;8.562;2023-03-13T01:22:15;99812.22;;;9.38;82.13
62333;BME280;48624;49.812;8.562;2023-03-13T01:24:40;99807.06;;;9.36;82.41
62333;BME280;48624;49.812;8.562;2023-03-13T01:27:05;99802.22;;;9.30;82.19
62333;BME280;48624;49.812;8.562;2023-03-13T01:29:30;99796.81;;;9.32;82.43
62333;BME280;48624;49.812;8.562;2023-03-13T01:31:56;99801.47;;;9.52;81.47
62333;BME280;48624;49.812;8.562;2023-03-13T01:34:21;99793.69;;;9.62;81.14
62333;BME280;48624;49.812;8.562;2023-03-13T01:36:46;99792.63;;;9.40;81.58
62333;BME280;48624;49.812;8.562;2023-03-13T01:39:16;99789.75;;;9.43;81.45
62333;BME280;48624;49.812;8.562;2023-03-13T01:41:41;99790.28;;;9.49;81.67
62333;BME280;48624;49.812;8.562;2023-03-13T01:44:24;99774.66;;;9.46;81.50
62333;BME280;48624;49.812;8.562;2023-03-13T01:46:50;99770.81;;;9.50;81.45
62333;BME280;48624;49.812;8.562;2023-03-13T01:49:30;99775.28;;;9.49;81.43
62333;BME280;48624;49.812;8.562;2023-03-13T01:52:07;99761.00;;;9.63;81.16
62333;BME280;48624;49.812;8.562;2023-03-13T01:54:41;99758.97;;;9.67;80.41
62333;BME280;48624;49.812;8.562;2023-03-13T01:57:31;99766.16;;;9.65;80.68
62333;BME280;48624;49.812;8.562;2023-03-13T02:02:31;99752.84;;;9.66;81.29
62333;BME280;48624;49.812;8.562;2023-03-13T02:04:59;99740.59;;;9.65;81.44
62333;BME280;48624;49.812;8.562;2023-03-13T02:07:30;99736.34;;;9.63;81.74
62333;BME280;48624;49.812;8.562;2023-03-13T02:09:57;99742.88;;;9.70;81.86
62333;BME280;48624;49.812;8.562;2023-03-13T02:12:33;99740.78;;;9.62;82.58
62333;BME280;48624;49.812;8.562;2023-03-13T02:15:02;99728.31;;;9.64;82.23
62333;BME280;48624;49.812;8.562;2023-03-13T02:17:29;99728.50;;;9.50;82.67
62333;BME280;48624;49.812;8.562;2023-03-13T02:19:54;99727.22;;;9.67;81.80
62333;BME280;48624;49.812;8.562;2023-03-13T02:22:28;99712.19;;;9.56;82.39
62333;BME280;48624;49.812;8.562;2023-03-13T02:25:04;99709.81;;;9.64;82.19
62333;BME280;48624;49.812;8.562;2023-03-13T02:27:30;99706.41;;;9.62;82.35
62333;BME280;48624;49.812;8.562;2023-03-13T02:29:57;99698.25;;;9.54;82.94
62333;BME280;48624;49.812;8.562;2023-03-13T02:32:25;99695.81;;;9.51;83.43
62333;BME280;48624;49.812;8.562;2023-03-13T02:34:53;99687.41;;;9.57;83.83
62333;BME280;48624;49.812;8.562;2023-03-13T02:37:20;99681.75;;;9.50;84.32
62333;BME280;48624;49.812;8.562;2023-03-13T02:39:48;99702.31;;;9.58;84.86
62333;BME280;48624;49.812;8.562;2023-03-13T02:42:16;99689.81;;;9.49;85.49
62333;BME280;48624;49.812;8.562;2023-03-13T02:44:45;99688.22;;;9.46;86.74
62333;BME280;48624;49.812;8.562;2023-03-13T02:47:11;99677.72;;;9.33;88.24
62333;BME280;48624;49.812;8.562;2023-03-13T02:49:37;99676.91;;;9.33;89.78
62333;BME280;48624;49.812;8.562;2023-03-13T02:52:13;99670.19;;;9.40;90.12
62333;BME280;48624;49.812;8.562;2023-03-13T02:54:40;99661.19;;;9.07;91.80
62333;BME280;48624;49.812;8.562;2023-03-13T02:57:05;99654.50;;;9.14;90.85
62333;BME280;48624;49.812;8.562;2023-03-13T02:59:30;99653.25;;;9.07;91.52
62333;BME280;48624;49.812;8.562;2023-03-13T03:01:56;99643.56;;;9.07;91.54
62333;BME280;48624;49.812;8.562;2023-03-13T03:04:23;99642.06;;;9.03;91.49
62333;BME280;48624;49.812;8.562;2023-03-13T03:06:49;99624.44;;;9.04;92.08
62333;BME280;48624;49.812;8.562;2023-03-13T03:09:16;99623.13;;;9.09;91.95
62333;BME280;48624;49.812;8.562;2023-03-13T03:11:41;99621.19;;;9.00;92.18
62333;BME280;48624;49.812;8.562;2023-03-13T03:14:08;99615.19;;;8.98;92.64
62333;BME280;48624;49.812;8.562;2023-03-13T03:16:33;99616.72;;;9.00;92.83
62333;BME280;48624;49.812;8.562;2023-03-13T03:18:58;99616.28;;;9.07;92.31
62333;BME280;48624;49.812;8.562;2023-03-13T03:21:24;99613.34;;;8.98;92.87
62333;BME280;48624;49.812;8.562;2023-03-13T03:23:49;99596.94;;;9.06;92.23
62333;BME280;48624;49.812;8.562;2023-03-13T03:26:16;99614.06;;;9.00;92.17
62333;BME280;48624;49.812;8.562;2023-03-13T03:28:41;99613.63;;;9.07;91.70
62333;BME280;48624;49.812;8.562;2023-03-13T03:31:09;99614.00;;;9.13;90.98
62333;BME280;48624;49.812;8.562;2023-03-13T03:33:35;99615.47;;;9.18;91.36
62333;BME280;48624;49.812;8.562;2023-03-13T03:36:01;99619.06;;;9.16;90.96
62333;BME280;48624;49.812;8.562;2023-03-13T03:38:27;99612.59;;;9.21;92.08
62333;BME280;48624;49.812;8.562;2023-03-13T03:40:53;99615.56;;;9.16;93.33
62333;BME280;48624;49.812;8.562;2023-03-13T03:43:18;99615.22;;;9.21;94.62
62333;BME280;48624;49.812;8.562;2023-03-13T03:45:43;99617.06;;;9.20;94.98
62333;BME280;48624;49.812;8.562;2023-03-13T03:48:09;99610.03;;;9.08;95.58
62333;BME280;48624;49.812;8.562;2023-03-13T03:50:34;99618.09;;;9.06;96.50
62333;BME280;48624;49.812;8.562;2023-03-13T03:52:59;99628.41;;;9.09;96.73
62333;BME280;48624;49.812;8.562;2023-03-13T03:55:25;99629.13;;;9.11;98.33
62333;BME280;48624;49.812;8.562;2023-03-13T03:57:50;99611.44;;;9.00;99.32
62333;BME280;48624;49.812;8.562;2023-03-13T04:00:16;99615.94;;;9.11;99.78
62333;BME280;48624;49.812;8.562;2023-03-13T04:02:43;99610.06;;;9.19;99.99
62333;BME280;48624;49.812;8.562;2023-03-13T04:05:08;99602.38;;;9.27;100.00
62333;BME280;48624;49.812;8.562;2023-03-13T04:07:34;99604.56;;;9.34;100.00
62333;BME280;48624;49.812;8.562;2023-03-13T04:09:59;99599.66;;;9.40;100.00
62333;BME280;48624;49.812;8.562;2023-03-13T04:12:24;99597.13;;;9.39;100.00
62333;BME280;48624;49.812;8.562;2023-03-13T04:14:50;99582.47;;;9.35;100.00
62333;BME280;48624;49.812;8.562;2023-03-13T04:17:15;99585.34;;;9.32;100.00
62333;BME280;48624;49.812;8.562;2023-03-13T04:19:41;99585.47;;;9.41;100.00
62333;BME280;48624;49.812;8.562;2023-03-13T04:22:06;99574.91;;;9.53;100.00
62333;BME280;48624;49.812;8.562;2023-03-13T04:24:32;99567.81;;;9.30;100.00
62333;BME280;48624;49.812;8.562;2023-03-13T04:26:57;99566.25;;;9.39;100.00
62333;BME280;48624;49.812;8.562;2023-03-13T04:29:23;99573.69;;;9.34;100.00
62333;BME280;48624;49.812;8.562;2023-03-13T04:31:48;99561.06;;;9.26;100.00
62333;BME280;48624;49.812;8.562;2023-03-13T04:34:14;99569.75;;;9.40;100.00
62333;BME280;48624;49.812;8.562;2023-03-13T04:36:39;99566.97;;;9.53;100.00
62333;BME280;48624;49.812;8.562;2023-03-13T04:39:04;99563.84;;;9.48;100.00
62333;BME280;48624;49.812;8.562;2023-03-13T04:41:29;99564.31;;;9.53;100.00
62333;BME280;48624;49.812;8.562;2023-03-13T04:43:55;99563.13;;;9.46;100.00
62333;BME280;48624;49.812;8.562;2023-03-13T04:46:20;99564.09;;;9.56;100.00
62333;BME280;48624;49.812;8.562;2023-03-13T04:48:45;99564.81;;;9.47;100.00
62333;BME280;48624;49.812;8.562;2023-03-13T04:51:11;99566.84;;;9.54;100.00
62333;BME280;48624;49.812;8.562;2023-03-13T04:53:37;99558.47;;;9.49;100.00
62333;BME280;48624;49.812;8.562;2023-03-13T04:56:02;99569.25;;;9.57;100.00
62333;BME280;48624;49.812;8.562;2023-03-13T04:58:28;99551.94;;;9.65;100.00
62333;BME280;48624;49.812;8.562;2023-03-13T05:00:53;99530.34;;;9.60;100.00
62333;BME280;48624;49.812;8.562;2023-03-13T05:03:19;99543.91;;;9.55;100.00
62333;BME280;48624;49.812;8.562;2023-03-13T05:05:44;99554.25;;;9.47;100.00
62333;BME280;48624;49.812;8.562;2023-03-13T05:08:10;99542.22;;;9.65;100.00
62333;BME280;48624;49.812;8.562;2023-03-13T05:10:38;99536.94;;;9.54;100.00
62333;BME280;48624;49.812;8.562;2023-03-13T05:13:05;99549.44;;;9.63;100.00
62333;BME280;48624;49.812;8.562;2023-03-13T05:15:30;99546.19;;;9.60;100.00
62333;BME280;48624;49.812;8.562;2023-03-13T05:17:56;99533.78;;;9.71;100.00
62333;BME280;48624;49.812;8.562;2023-03-13T05:20:21;99529.34;;;9.72;100.00
62333;BME280;48624;49.812;8.562;2023-03-13T05:22:46;99524.28;;;9.80;100.00
62333;BME280;48624;49.812;8.562;2023-03-13T05:25:11;99515.28;;;9.71;100.00
62333;BME280;48624;49.812;8.562;2023-03-13T05:27:37;99520.19;;;9.76;100.00
62333;BME280;48624;49.812;8.562;2023-03-13T05:30:02;99501.91;;;9.84;100.00
62333;BME280;48624;49.812;8.562;2023-03-13T05:32:28;99505.78;;;9.80;100.00
62333;BME280;48624;49.812;8.562;2023-03-13T05:34:53;99502.50;;;9.88;100.00
62333;BME280;48624;49.812;8.562;2023-03-13T05:37:18;99495.84;;;10.05;100.00
62333;BME280;48624;49.812;8.562;2023-03-13T05:39:43;99488.28;;;10.12;100.00
62333;BME280;48624;49.812;8.562;2023-03-13T05:42:09;99479.47;;;10.11;100.00
62333;BME280;48624;49.812;8.562;2023-03-13T05:44:34;99473.94;;;10.14;100.00
62333;BME280;48624;49.812;8.562;2023-03-13T05:46:59;99473.81;;;10.16;100.00
62333;BME280;48624;49.812;8.562;2023-03-13T05:49:24;99494.13;;;10.27;100.00
62333;BME280;48624;49.812;8.562;2023-03-13T05:51:50;99499.63;;;10.35;100.00
62333;BME280;48624;49.812;8.562;2023-03-13T05:54:15;99493.94;;;10.51;100.00
62333;BME280;48624;49.812;8.562;2023-03-13T05:56:40;99503.03;;;10.59;100.00
62333;BME280;48624;49.812;8.562;2023-03-13T05:59:06;99501.88;;;10.51;100.00
62333;BME280;48624;49.812;8.562;2023-03-13T06:01:31;99503.47;;;10.64;100.00
62333;BME280;48624;49.812;8.562;2023-03-13T06:03:56;99509.31;;;10.79;100.00
62333;BME280;48624;49.812;8.562;2023-03-13T06:06:22;99516.66;;;10.75;100.00
62333;BME280;48624;49.812;8.562;2023-03-13T06:08:47;99503.22;;;10.67;100.00
62333;BME280;48624;49.812;8.562;2023-03-13T06:11:12;99500.19;;;10.72;100.00
62333;BME280;48624;49.812;8.562;2023-03-13T06:13:37;99505.47;;;10.72;100.00
62333;BME280;48624;49.812;8.562;2023-03-13T06:16:05;99487.28;;;10.78;100.00
62333;BME280;48624;49.812;8.562;2023-03-13T06:18:30;99512.41;;;11.05;100.00
62333;BME280;48624;49.812;8.562;2023-03-13T06:20:57;99499.69;;;10.99;100.00
62333;BME280;48624;49.812;8.562;2023-03-13T06:23:23;99483.13;;;11.07;100.00
62333;BME280;48624;49.812;8.562;2023-03-13T06:25:49;99499.28;;;11.04;100.00
62333;BME280;48624;49.812;8.562;2023-03-13T06:28:16;99499.00;;;11.07;100.00
62333;BME280;48624;49.812;8.562;2023-03-13T06:30:41;99503.88;;;11.02;100.00
62333;BME280;48624;49.812;8.562;2023-03-13T06:33:06;99509.22;;;11.12;100.00
62333;BME280;48624;49.812;8.562;2023-03-13T06:35:32;99497.25;;;11.17;100.00
62333;BME280;48624;49.812;8.562;2023-03-13T06:37:57;99487.00;;;11.24;100.00
62333;BME280;48624;49.812;8.562;2023-03-13T06:40:22;99495.47;;;11.28;100.00
62333;BME280;48624;49.812;8.562;2023-03-13T06:42:48;99493.00;;;11.26;100.00
62333;BME280;48624;49.812;8.562;2023-03-13T06:45:13;99490.25;;;11.37;100.00
62333;BME280;48624;49.812;8.562;2023-03-13T06:47:38;99491.34;;;11.35;100.00
62333;BME280;48624;49.812;8.562;2023-03-13T06:50:05;99488.00;;;11.33;100.00
62333;BME280;48624;49.812;8.562;2023-03-13T06:52:30;99498.78;;;11.41;100.00
62333;BME280;48624;49.812;8.562;2023-03-13T06:54:56;99499.66;;;11.20;100.00
62333;BME280;48624;49.812;8.562;2023-03-13T06:57:21;99497.31;;;11.27;100.00
62333;BME280;48624;49.812;8.562;2023-03-13T06:59:46;99505.59;;;11.13;100.00
62333;BME280;48624;49.812;8.562;2023-03-13T07:02:12;99484.53;;;11.11;100.00
62333;BME280;48624;49.812;8.562;2023-03-13T07:04:37;99486.31;;;11.01;100.00
62333;BME280;48624;49.812;8.562;2023-03-13T07:07:03;99484.06;;;10.96;100.00
62333;BME280;48624;49.812;8.562;2023-03-13T07:09:29;99484.88;;;10.96;100.00
62333;BME280;48624;49.812;8.562;2023-03-13T07:11:54;99483.41;;;11.14;100.00
62333;BME280;48624;49.812;8.562;2023-03-13T07:14:22;99483.03;;;11.18;100.00
62333;BME280;48624;49.812;8.562;2023-03-13T07:16:47;99497.34;;;11.06;100.00
62333;BME280;48624;49.812;8.562;2023-03-13T07:19:12;99498.81;;;11.20;100.00
62333;BME280;48624;49.812;8.562;2023-03-13T07:21:39;99504.06;;;11.10;100.00
62333;BME280;48624;49.812;8.562;2023-03-13T07:24:04;99507.75;;;10.98;100.00
62333;BME280;48624;49.812;8.562;2023-03-13T07:26:30;99510.34;;;10.88;100.00
62333;BME280;48624;49.812;8.562;2023-03-13T07:28:55;99505.06;;;10.88;100.00
62333;BME280;48624;49.812;8.562;2023-03-13T07:31:21;99513.91;;;10.98;100.00
62333;BME280;48624;49.812;8.562;2023-03-13T07:33:48;99509.97;;;10.92;100.00
62333;BME280;48624;49.812;8.562;2023-03-13T07:36:17;99514.69;;;11.10;100.00
62333;BME280;48624;49.812;8.562;2023-03-13T07:38:45;99517.19;;;11.12;100.00
62333;BME280;48624;49.812;8.562;2023-03-13T07:41:11;99511.28;;;11.08;100.00
62333;BME280;48624;49.812;8.562;2023-03-13T07:43:40;99514.91;;;11.28;100.00
62333;BME280;48624;49.812;8.562;2023-03-13T07:46:07;99516.38;;;11.42;100.00
62333;BME280;48624;49.812;8.562;2023-03-13T07:48:38;99506.53;;;11.33;100.00
62333;BME280;48624;49.812;8.562;2023-03-13T07:51:06;99506.84;;;11.40;100.00
62333;BME280;48624;49.812;8.562;2023-03-13T07:53:32;99518.63;;;11.47;100.00
62333;BME280;48624;49.812;8.562;2023-03-13T07:56:00;99527.78;;;11.74;100.00
62333;BME280;48624;49.812;8.562;2023-03-13T07:58:31;99521.09;;;11.79;100.00
62333;BME280;48624;49.812;8.562;2023-03-13T08:00:57;99518.56;;;11.68;100.00
62333;BME280;48624;49.812;8.562;2023-03-13T08:03:23;99517.50;;;11.90;100.00
62333;BME280;48624;49.812;8.562;2023-03-13T08:06:03;99521.84;;;12.01;99.78
62333;BME280;48624;49.812;8.562;2023-03-13T08:08:29;99512.28;;;12.20;98.17
62333;BME280;48624;49.812;8.562;2023-03-13T08:11:06;99503.91;;;12.15;97.92
62333;BME280;48624;49.812;8.562;2023-03-13T08:13:32;99507.69;;;12.52;95.58
62333;BME280;48624;49.812;8.562;2023-03-13T08:16:29;99512.28;;;12.59;95.88
62333;BME280;48624;49.812;8.562;2023-03-13T08:18:56;99528.94;;;12.61;96.02
62333;BME280;48624;49.812;8.562;2023-03-13T08:21:27;99525.00;;;12.66;96.02
62333;BME280;48624;49.812;8.562;2023-03-13T08:23:58;99537.44;;;12.75;94.67
62333;BME280;48624;49.812;8.562;2023-03-13T08:26:26;99524.31;;;12.83;94.66
62333;BME280;48624;49.812;8.562;2023-03-13T08:28:54;99528.59;;;13.04;93.76
62333;BME280;48624;49.812;8.562;2023-03-13T08:31:27;99539.25;;;12.94;93.41
62333;BME280;48624;49.812;8.562;2023-03-13T08:33:53;99531.00;;;12.97;93.53
62333;BME280;48624;49.812;8.562;2023-03-13T08:36:23;99535.28;;;13.18;92.61
62333;BME280;48624;49.812;8.562;2023-03-13T08:38:53;99527.88;;;13.12;92.56
62333;BME280;48624;49.812;8.562;2023-03-13T08:41:21;99528.03;;;13.00;93.52
62333;BME280;48624;49.812;8.562;2023-03-13T08:43:47;99534.63;;;12.96;94.19
62333;BME280;48624;49.812;8.562;2023-03-13T08:46:13;99533.19;;;13.22;92.79
62333;BME280;48624;49.812;8.562;2023-03-13T08:48:39;99536.22;;;13.37;92.42
62333;BME280;48624;49.812;8.562;2023-03-13T08:51:06;99527.44;;;13.26;91.63
62333;BME280;48624;49.812;8.562;2023-03-13T08:53:33;99509.84;;;13.43;90.94
62333;BME280;48624;49.812;8.562;2023-03-13T08:55:59;99533.50;;;12.99;92.55
62333;BME280;48624;49.812;8.562;2023-03-13T08:58:24;99525.56;;;13.37;91.98
62333;BME280;48624;49.812;8.562;2023-03-13T09:00:50;99526.25;;;13.39;90.34
62333;BME280;48624;49.812;8.562;2023-03-13T09:03:15;99527.00;;;13.21;92.13
62333;BME280;48624;49.812;8.562;2023-03-13T09:05:41;99537.66;;;13.21;91.74
62333;BME280;48624;49.812;8.562;2023-03-13T09:08:07;99524.72;;;13.46;91.21
62333;BME280;48624;49.812;8.562;2023-03-13T09:10:32;99535.53;;;13.25;91.19
62333;BME280;48624;49.812;8.562;2023-03-13T09:12:58;99519.00;;;13.31;91.57
62333;BME280;48624;49.812;8.562;2023-03-13T09:15:23;99522.66;;;13.30;91.29
62333;BME280;48624;49.812;8.562;2023-03-13T09:17:48;99518.25;;;13.01;92.53
62333;BME280;48624;49.812;8.562;2023-03-13T09:20:14;99508.50;;;13.29;92.05
62333;BME280;48624;49.812;8.562;2023-03-13T09:22:39;99510.25;;;13.11;92.55
62333;BME280;48624;49.812;8.562;2023-03-13T09:25:05;99506.53;;;13.31;92.04
62333;BME280;48624;49.812;8.562;2023-03-13T09:27:30;99499.34;;;13.42;90.48
62333;BME280;48624;49.812;8.562;2023-03-13T09:29:55;99487.66;;;13.35;90.70
62333;BME280;48624;49.812;8.562;2023-03-13T09:32:21;99464.13;;;13.30;91.47
62333;BME280;48624;49.812;8.562;2023-03-13T09:34:46;99448.44;;;13.27;91.50
62333;BME280;48624;49.812;8.562;2023-03-13T09:37:11;99461.63;;;13.66;90.79
62333;BME280;48624;49.812;8.562;2023-03-13T09:39:37;99457.22;;;13.75;89.27
62333;BME280;48624;49.812;8.562;2023-03-13T09:42:19;99447.56;;;13.46;90.50
62333;BME280;48624;49.812;8.562;2023-03-13T09:44:58;99437.38;;;13.87;88.49
62333;BME280;48624;49.812;8.562;2023-03-13T09:47:38;99440.78;;;13.80;89.39
62333;BME280;48624;49.812;8.562;2023-03-13T09:50:14;99441.88;;;14.05;87.93
62333;BME280;48624;49.812;8.562;2023-03-13T09:52:41;99435.41;;;14.08;87.39
62333;BME280;48624;49.812;8.562;2023-03-13T09:55:19;99433.97;;;14.13;86.85
62333;BME280;48624;49.812;8.562;2023-03-13T09:57:58;99436.03;;;14.20;87.00
62333;BME280;48624;49.812;8.562;2023-03-13T10:00:38;99433.75;;;14.69;84.68
62333;BME280;48624;49.812;8.562;2023-03-13T10:03:14;99423.94;;;14.52;86.67
62333;BME280;48624;49.812;8.562;2023-03-13T10:06:12;99424.47;;;15.00;83.36
62333;BME280;48624;49.812;8.562;2023-03-13T10:08:39;99411.34;;;14.80;83.81
62333;BME280;48624;49.812;8.562;2023-03-13T10:11:22;99428.13;;;15.34;82.88
62333;BME280;48624;49.812;8.562;2023-03-13T10:14:01;99430.22;;;15.65;82.02
62333;BME280;48624;49.812;8.562;2023-03-13T10:16:37;99428.31;;;15.40;80.41
62333;BME280;48624;49.812;8.562;2023-03-13T10:19:12;99417.47;;;15.50;79.98
62333;BME280;48624;49.812;8.562;2023-03-13T10:21:40;99421.91;;;15.25;81.61
62333;BME280;48624;49.812;8.562;2023-03-13T10:24:18;99415.75;;;14.90;82.87
62333;BME280;48624;49.812;8.562;2023-03-13T10:26:47;99412.25;;;14.71;83.22
62333;BME280;48624;49.812;8.562;2023-03-13T10:29:20;99406.84;;;14.81;82.59
62333;BME280;48624;49.812;8.562;2023-03-13T10:31:55;99417.81;;;14.78;82.61
62333;BME280;48624;49.812;8.562;2023-03-13T10:34:21;99410.03;;;14.40;83.69
62333;BME280;48624;49.812;8.562;2023-03-13T10:36:49;99401.97;;;14.76;82.63
62333;BME280;48624;49.812;8.562;2023-03-13T10:39:17;99411.41;;;14.44;84.03
62333;BME280;48624;49.812;8.562;2023-03-13T10:41:43;99407.63;;;14.73;82.42
62333;BME280;48624;49.812;8.562;2023-03-13T10:44:17;99411.22;;;14.64;83.48
62333;BME280;48624;49.812;8.562;2023-03-13T10:46:44;99408.06;;;14.68;83.69
62333;BME280;48624;49.812;8.562;2023-03-13T10:49:18;99399.41;;;14.66;83.51
62333;BME280;48624;49.812;8.562;2023-03-13T10:51:51;99393.84;;;14.78;82.94
62333;BME280;48624;49.812;8.562;2023-03-13T10:54:23;99392.91;;;15.30;80.66
62333;BME280;48624;49.812;8.562;2023-03-13T10:56:50;99394.63;;;15.39;81.45
62333;BME280;48624;49.812;8.562;2023-03-13T10:59:22;99387.72;;;15.29;81.41
62333;BME280;48624;49.812;8.562;2023-03-13T11:01:49;99394.00;;;15.62;80.46
62333;BME280;48624;49.812;8.562;2023-03-13T11:07:13;99366.72;;;16.18;78.40
62333;BME280;48624;49.812;8.562;2023-03-13T11:09:39;99365.19;;;16.41;77.57
62333;BME280;48624;49.812;8.562;2023-03-13T11:12:16;99357.19;;;16.07;77.01
62333;BME280;48624;49.812;8.562;2023-03-13T11:14:44;99362.88;;;16.38;76.96
62333;BME280;48624;49.812;8.562;2023-03-13T11:17:33;99351.31;;;16.37;75.50
62333;BME280;48624;49.812;8.562;2023-03-13T11:20:21;99345.59;;;16.57;75.15
62333;BME280;48624;49.812;8.562;2023-03-13T11:25:19;99329.69;;;16.72;74.60
62333;BME280;48624;49.812;8.562;2023-03-13T11:27:53;99327.94;;;16.31;75.30
62333;BME280;48624;49.812;8.562;2023-03-13T11:30:48;99315.13;;;16.01;76.17
62333;BME280;48624;49.812;8.562;2023-03-13T11:36:13;99301.56;;;16.11;75.46
62333;BME280;48624;49.812;8.562;2023-03-13T11:38:48;99291.72;;;16.28;74.92
62333;BME280;48624;49.812;8.562;2023-03-13T11:41:39;99283.22;;;16.16;75.30
62333;BME280;48624;49.812;8.562;2023-03-13T11:47:15;99277.38;;;16.13;74.93
62333;BME280;48624;49.812;8.562;2023-03-13T11:49:54;99266.47;;;16.31;74.04
62333;BME280;48624;49.812;8.562;2023-03-13T11:52:46;99252.34;;;16.62;73.97
62333;BME280;48624;49.812;8.562;2023-03-13T12:00:30;99247.75;;;16.79;73.16
62333;BME280;48624;49.812;8.562;2023-03-13T12:03:17;99240.13;;;16.68;72.91
62333;BME280;48624;49.812;8.562;2023-03-13T12:05:53;99234.06;;;16.74;73.69
62333;BME280;48624;49.812;8.562;2023-03-13T12:08:39;99225.59;;;16.70;72.78
62333;BME280;48624;49.812;8.562;2023-03-13T12:14:00;99201.28;;;16.40;72.60
62333;BME280;48624;49.812;8.562;2023-03-13T12:16:40;99214.38;;;16.75;71.49
62333;BME280;48624;49.812;8.562;2023-03-13T12:19:12;99204.53;;;16.67;71.58
62333;BME280;48624;49.812;8.562;2023-03-13T12:21:49;99195.97;;;16.72;71.04
62333;BME280;48624;49.812;8.562;2023-03-13T12:24:32;99186.09;;;17.12;71.21
62333;BME280;48624;49.812;8.562;2023-03-13T12:27:10;99189.03;;;17.41;70.80
62333;BME280;48624;49.812;8.562;2023-03-13T12:32:21;99163.97;;;17.87;69.08
62333;BME280;48624;49.812;8.562;2023-03-13T12:34:58;99169.41;;;18.17;67.41
62333;BME280;48624;49.812;8.562;2023-03-13T12:40:36;99171.16;;;18.62;66.08
62333;BME280;48624;49.812;8.562;2023-03-13T12:43:09;99164.03;;;18.69;65.99
62333;BME280;48624;49.812;8.562;2023-03-13T12:45:43;99159.53;;;18.69;65.93
62333;BME280;48624;49.812;8.562;2023-03-13T12:48:22;99148.94;;;18.46;65.87
62333;BME280;48624;49.812;8.562;2023-03-13T12:51:06;99153.47;;;18.30;66.29
62333;BME280;48624;49.812;8.562;2023-03-13T12:59:21;99129.72;;;17.82;67.26
62333;BME280;48624;49.812;8.562;2023-03-13T13:01:51;99111.06;;;17.74;67.55
62333;BME280;48624;49.812;8.562;2023-03-13T13:04:32;99110.59;;;17.70;67.54
62333;BME280;48624;49.812;8.562;2023-03-13T13:07:05;99102.19;;;17.88;67.97
62333;BME280;48624;49.812;8.562;2023-03-13T13:09:35;99107.72;;;18.02;67.76
62333;BME280;48624;49.812;8.562;2023-03-13T13:12:23;99102.09;;;18.27;67.04
62333;BME280;48624;49.812;8.562;2023-03-13T13:25:26;99053.06;;;17.66;66.87
62333;BME280;48624;49.812;8.562;2023-03-13T13:27:52;99041.94;;;18.14;66.57
62333;BME280;48624;49.812;8.562;2023-03-13T13:32:44;99026.34;;;18.83;62.76
62333;BME280;48624;49.812;8.562;2023-03-13T13:35:34;99005.34;;;19.16;62.39
62333;BME280;48624;49.812;8.562;2023-03-13T13:43:47;98973.81;;;20.76;58.43
62333;BME280;48624;49.812;8.562;2023-03-13T13:46:24;98967.41;;;20.63;58.32
62333;BME280;48624;49.812;8.562;2023-03-13T13:49:10;98968.66;;;21.15;55.35
62333;BME280;48624;49.812;8.562;2023-03-13T13:51:39;98966.53;;;21.24;55.23
62333;BME280;48624;49.812;8.562;2023-03-13T13:56:45;98953.63;;;19.91;58.46
62333;BME280;48624;49.812;8.562;2023-03-13T14:01:48;98934.50;;;19.52;59.02
62333;BME280;48624;49.812;8.562;2023-03-13T14:04:18;98937.06;;;19.80;59.69
62333;BME280;48624;49.812;8.562;2023-03-13T14:06:50;98917.03;;;19.90;60.13
62333;BME280;48624;49.812;8.562;2023-03-13T14:09:30;98912.06;;;19.73;59.61